createdAt,value
2023-01-23T00:01:37.878Z,58.75
2023-01-23T00:04:05.172Z,60.17
2023-01-23T00:09:25.534Z,65.85
2023-01-23T00:11:52.779Z,56.58
2023-01-23T00:14:19.905Z,57.33
2023-01-23T00:21:38.158Z,55.97
2023-01-23T00:33:55.107Z,48.67
2023-01-23T00:36:22.951Z,49.20
2023-01-23T00:41:15.998Z,44.22
2023-01-23T00:43:43.130Z,38.95
2023-01-23T00:48:36.172Z,47.25
2023-01-23T00:51:03.335Z,36.38
2023-01-23T00:55:55.866Z,41.15
2023-01-23T00:58:24.070Z,50.38
2023-01-23T01:00:51.195Z,42.45
2023-01-23T01:03:19.639Z,76.78
2023-01-23T01:05:47.370Z,33.70
2023-01-23T01:08:14.486Z,41.03
2023-01-23T01:10:41.735Z,44.45
2023-01-23T01:13:09.589Z,24.23
2023-01-23T01:15:37.912Z,30.77
2023-01-23T01:18:05.406Z,25.17
2023-01-23T01:20:32.752Z,25.48
2023-01-23T01:23:00.839Z,31.90
2023-01-23T01:25:28.202Z,46.53
2023-01-23T01:27:56.369Z,25.98
2023-01-23T01:30:23.893Z,28.40
2023-01-23T01:32:50.859Z,43.85
2023-01-23T01:45:06.037Z,33.22
2023-01-23T01:47:33.241Z,30.95
2023-01-23T02:10:29.683Z,20.80
2023-01-23T02:12:56.683Z,22.30
2023-01-23T02:15:23.686Z,25.35
2023-01-23T02:22:49.979Z,22.80
2023-01-23T02:25:22.145Z,20.27
2023-01-23T02:27:49.324Z,22.08
2023-01-23T02:30:18.780Z,25.95
2023-01-23T02:32:46.036Z,28.88
2023-01-23T02:35:16.039Z,24.13
2023-01-23T02:37:44.124Z,23.77
2023-01-23T02:47:34.070Z,23.58
2023-01-23T02:50:01.423Z,29.35
2023-01-23T02:52:29.628Z,22.25
2023-01-23T03:00:06.479Z,26.40
2023-01-23T03:02:35.647Z,22.67
2023-01-23T03:05:02.889Z,22.60
2023-01-23T03:39:46.036Z,33.88
2023-01-23T04:45:46.147Z,26.92
2023-01-23T05:03:33.208Z,30.92
2023-01-23T05:21:13.076Z,33.75
2023-01-23T05:28:32.288Z,34.13
2023-01-23T05:40:55.473Z,30.63
2023-01-23T05:43:51.035Z,26.33
2023-01-23T05:46:47.324Z,31.67
2023-01-23T05:54:05.821Z,31.80
2023-01-23T06:11:42.805Z,30.88
2023-01-23T06:14:10.288Z,32.38
2023-01-23T06:21:28.898Z,89.65
2023-01-23T06:23:56.862Z,63.97
2023-01-23T06:26:23.896Z,43.15
2023-01-23T06:28:51.233Z,34.85
2023-01-23T06:31:18.567Z,43.90
2023-01-23T06:33:49.212Z,35.35
2023-01-23T06:36:16.205Z,42.03
2023-01-23T06:38:43.356Z,52.40
2023-01-23T06:41:10.941Z,52.03
2023-01-23T06:43:41.416Z,45.72
2023-01-23T06:46:15.334Z,62.53
2023-01-23T06:53:33.514Z,64.20
2023-01-23T06:56:01.872Z,67.07
2023-01-23T07:03:23.940Z,91.22
2023-01-23T07:05:51.776Z,81.13
2023-01-23T07:08:35.702Z,87.40
2023-01-23T07:11:02.946Z,74.80
2023-01-23T07:13:30.227Z,50.58
2023-01-23T07:15:58.185Z,58.72
2023-01-23T07:25:45.934Z,44.40
2023-01-23T07:28:12.944Z,41.38
2023-01-23T07:30:40.179Z,48.05
2023-01-23T07:33:07.431Z,49.63
2023-01-23T07:35:34.442Z,45.05
2023-01-23T07:38:01.801Z,46.33
2023-01-23T07:40:29.524Z,44.42
2023-01-23T07:42:57.251Z,45.60
2023-01-23T07:45:24.268Z,39.50
2023-01-23T07:50:17.095Z,46.00
2023-01-23T07:52:44.315Z,54.75
2023-01-23T07:55:11.552Z,41.28
2023-01-23T07:57:38.682Z,47.67
2023-01-23T08:00:06.282Z,37.05
2023-01-23T08:02:39.643Z,45.63
2023-01-23T08:05:07.129Z,45.97
2023-01-23T08:07:34.138Z,44.90
2023-01-23T08:14:52.512Z,43.92
2023-01-23T08:17:19.757Z,52.25
2023-01-23T08:19:46.885Z,50.85
2023-01-23T08:22:13.892Z,52.08
2023-01-23T08:31:58.336Z,47.53
2023-01-23T08:34:25.550Z,47.50
2023-01-23T08:36:52.682Z,44.72
2023-01-23T08:41:49.079Z,50.85
2023-01-23T08:44:16.444Z,51.10
2023-01-23T08:49:11.386Z,51.53
2023-01-23T08:51:38.781Z,47.42
2023-01-23T08:59:07.200Z,46.67
2023-01-23T09:01:34.362Z,40.08
2023-01-23T09:04:01.483Z,34.70
2023-01-23T09:06:28.969Z,47.28
2023-01-23T09:08:56.098Z,56.88
2023-01-23T09:13:52.248Z,44.65
2023-01-23T09:16:20.931Z,41.00
2023-01-23T09:18:48.159Z,36.35
2023-01-23T09:21:16.618Z,43.33
2023-01-23T09:23:44.123Z,42.72
2023-01-23T09:26:13.789Z,40.00
2023-01-23T09:28:42.840Z,45.97
2023-01-23T09:31:11.813Z,34.92
2023-01-23T09:36:04.984Z,42.95
2023-01-23T09:38:34.399Z,40.50
2023-01-23T09:46:11.079Z,36.78
2023-01-23T09:48:48.208Z,37.78
2023-01-23T09:53:47.907Z,39.80
2023-01-23T09:56:17.787Z,40.25
2023-01-23T09:58:53.378Z,34.60
2023-01-23T10:01:20.326Z,39.58
2023-01-23T10:03:47.512Z,40.00
2023-01-23T10:06:21.351Z,37.03
2023-01-23T10:09:07.201Z,36.03
2023-01-23T10:11:34.082Z,38.20
2023-01-23T10:14:23.292Z,36.65
2023-01-23T10:40:04.495Z,33.22
2023-01-23T10:42:31.852Z,31.77
2023-01-23T10:47:33.195Z,33.40
2023-01-23T10:57:26.004Z,40.10
2023-01-23T10:59:56.122Z,36.95
2023-01-23T11:48:24.037Z,35.80
2023-01-23T11:51:23.717Z,41.03
2023-01-23T12:33:16.311Z,42.78
2023-01-23T12:49:00.376Z,39.00
2023-01-23T12:51:32.820Z,33.25
2023-01-23T12:59:14.553Z,52.28
2023-01-23T13:01:51.196Z,37.53
2023-01-23T13:04:24.279Z,40.10
2023-01-23T13:06:51.524Z,40.10
2023-01-23T13:09:37.371Z,34.70
2023-01-23T13:12:22.030Z,30.77
2023-01-23T13:15:12.830Z,34.00
2023-01-23T13:17:49.168Z,36.30
2023-01-23T13:23:19.880Z,31.42
2023-01-23T13:31:35.792Z,33.30
2023-01-23T13:34:15.273Z,32.88
2023-01-23T13:42:13.675Z,27.45
2023-01-23T13:44:59.871Z,31.27
2023-01-23T14:21:42.901Z,30.63
2023-01-23T14:24:27.436Z,31.42
2023-01-23T14:27:02.397Z,28.67
2023-01-23T14:36:55.312Z,34.42
2023-01-23T14:39:23.739Z,34.40
2023-01-23T14:41:51.217Z,32.17
2023-01-23T14:44:22.824Z,31.15
2023-01-23T14:56:53.379Z,42.88
2023-01-23T15:07:32.441Z,41.28
2023-01-23T15:15:20.651Z,39.08
2023-01-23T15:17:48.347Z,40.22
2023-01-23T15:28:41.879Z,38.85
2023-01-23T15:33:52.330Z,36.72
2023-01-23T15:48:38.067Z,44.22
2023-01-23T15:53:30.983Z,44.90
2023-01-23T15:55:58.125Z,43.60
2023-01-23T16:00:50.677Z,41.78
2023-01-23T16:03:17.699Z,40.22
2023-01-23T16:05:44.701Z,35.95
2023-01-23T16:08:17.433Z,39.92
2023-01-23T16:10:44.368Z,45.17
2023-01-23T16:13:12.909Z,42.17
2023-01-23T16:15:40.289Z,61.33
2023-01-23T16:18:07.772Z,48.05
2023-01-23T16:25:42.873Z,44.08
2023-01-23T16:28:21.954Z,50.28
2023-01-23T16:30:50.955Z,44.70
2023-01-23T16:33:18.696Z,48.47
2023-01-23T16:35:45.827Z,50.75
2023-01-23T16:38:23.901Z,50.05
2023-01-23T16:40:53.561Z,74.40
2023-01-23T16:43:21.478Z,50.60
2023-01-23T16:45:48.817Z,47.63
2023-01-23T16:53:17.210Z,56.38
2023-01-23T16:55:44.765Z,49.75
2023-01-23T17:03:21.404Z,46.83
2023-01-23T17:05:48.284Z,51.08
2023-01-23T17:13:16.503Z,50.42
2023-01-23T17:15:43.519Z,41.47
2023-01-23T17:18:36.820Z,41.85
2023-01-23T17:23:31.644Z,44.63
2023-01-23T17:26:01.101Z,46.88
2023-01-23T17:30:54.999Z,43.33
2023-01-23T17:33:26.603Z,49.38
2023-01-23T17:35:54.404Z,45.33
2023-01-23T17:38:25.891Z,49.75
2023-01-23T17:40:53.137Z,46.70
2023-01-23T17:45:48.873Z,52.08
2023-01-23T17:48:20.543Z,48.13
2023-01-23T17:50:47.527Z,45.70
2023-01-23T17:53:15.258Z,94.72
2023-01-23T17:58:12.410Z,80.40
2023-01-23T18:00:40.024Z,65.57
2023-01-23T18:07:59.347Z,50.22
2023-01-23T18:10:29.345Z,48.03
2023-01-23T18:13:04.635Z,49.83
2023-01-23T18:15:34.991Z,48.78
2023-01-23T18:25:40.895Z,38.28
2023-01-23T18:28:11.099Z,52.25
2023-01-23T18:33:15.707Z,49.22
2023-01-23T18:35:42.714Z,38.05
2023-01-23T18:38:41.984Z,51.70
2023-01-23T18:41:16.286Z,47.22
2023-01-23T18:46:17.074Z,54.58
2023-01-23T18:48:45.161Z,50.83
2023-01-23T18:51:25.545Z,48.38
2023-01-23T18:56:48.516Z,57.95
2023-01-23T18:59:38.793Z,91.88
2023-01-23T19:02:11.918Z,86.97
2023-01-23T19:04:43.591Z,55.15
2023-01-23T19:07:15.184Z,72.28
2023-01-23T19:09:46.949Z,68.70
2023-01-23T19:12:24.147Z,75.25
2023-01-23T19:15:10.740Z,65.45
2023-01-23T19:17:53.311Z,64.90
2023-01-23T19:30:22.933Z,41.85
2023-01-23T19:32:50.516Z,56.63
2023-01-23T19:35:17.754Z,69.15
2023-01-23T19:37:45.540Z,63.95
2023-01-23T19:47:42.376Z,77.93
2023-01-23T19:50:12.819Z,65.43
2023-01-23T19:52:40.117Z,63.65
2023-01-23T19:55:15.347Z,65.10
2023-01-23T19:57:44.658Z,65.13
2023-01-23T20:00:15.767Z,73.57
2023-01-23T20:02:42.632Z,81.72
2023-01-23T20:07:48.512Z,61.45
2023-01-23T20:15:08.573Z,64.57
2023-01-23T20:17:35.913Z,84.05
2023-01-23T20:20:03.785Z,69.05
2023-01-23T20:22:30.653Z,67.05
2023-01-23T20:24:57.689Z,51.42
2023-01-23T20:29:53.135Z,64.63
2023-01-23T20:32:20.341Z,58.25
2023-01-23T20:37:13.055Z,40.75
2023-01-23T20:39:40.900Z,38.92
2023-01-23T20:44:33.351Z,44.25
2023-01-23T20:47:00.366Z,43.55
2023-01-23T20:52:35.869Z,27.23
2023-01-23T20:55:02.903Z,23.85
2023-01-23T21:00:15.768Z,26.67
2023-01-23T21:02:43.005Z,16.42
2023-01-23T21:07:35.580Z,24.38
2023-01-23T21:10:03.031Z,26.00
2023-01-23T21:14:55.623Z,25.17
2023-01-23T21:17:22.611Z,28.05
2023-01-23T21:19:49.637Z,22.75
2023-01-23T21:22:16.598Z,27.48
2023-01-23T21:24:43.845Z,26.27
2023-01-23T21:27:10.757Z,24.88
2023-01-23T21:29:37.973Z,29.15
2023-01-23T21:32:04.901Z,32.58
2023-01-23T21:36:57.665Z,33.60
2023-01-23T21:39:24.693Z,28.08
2023-01-23T21:44:17.260Z,26.27
2023-01-23T21:46:44.459Z,26.67
2023-01-23T21:49:11.535Z,31.95
2023-01-23T21:51:38.494Z,28.05
2023-01-23T21:54:05.535Z,29.90
2023-01-23T22:01:42.804Z,30.40
2023-01-23T22:04:09.885Z,26.23
2023-01-23T22:06:38.003Z,27.27
2023-01-23T22:09:05.566Z,30.05
2023-01-23T22:11:32.653Z,34.00
2023-01-23T22:13:59.542Z,37.70
2023-01-23T22:16:45.581Z,31.67
2023-01-23T22:19:14.904Z,34.33
2023-01-23T22:24:07.905Z,34.00
2023-01-23T22:26:34.965Z,36.88
2023-01-23T22:29:02.008Z,34.60
2023-01-23T22:31:29.286Z,38.97
2023-01-23T22:33:56.410Z,38.38
2023-01-23T22:36:23.511Z,36.97
2023-01-23T22:38:51.066Z,41.80
2023-01-23T22:41:18.462Z,40.00
2023-01-23T22:43:45.470Z,36.65
2023-01-23T22:46:12.364Z,38.97
2023-01-23T22:48:39.207Z,40.83
2023-01-23T22:51:13.194Z,33.72
2023-01-23T22:53:40.439Z,44.92
2023-01-23T22:56:07.731Z,43.55
2023-01-23T22:58:35.065Z,43.97
2023-01-23T23:01:02.245Z,47.30
2023-01-23T23:03:33.431Z,37.85
2023-01-23T23:06:02.082Z,44.80
2023-01-23T23:08:29.328Z,46.42
2023-01-23T23:11:02.556Z,44.22
2023-01-23T23:13:30.736Z,39.90
2023-01-23T23:15:58.024Z,39.22
2023-01-23T23:18:24.886Z,48.45
2023-01-23T23:20:51.768Z,46.38
2023-01-23T23:23:19.253Z,45.10
2023-01-23T23:25:46.280Z,41.83
2023-01-23T23:28:13.142Z,46.40
2023-01-23T23:35:31.160Z,46.88
2023-01-23T23:40:23.855Z,51.72
2023-01-23T23:42:50.828Z,49.60
2023-01-23T23:45:17.756Z,50.72
2023-01-23T23:50:10.554Z,50.00
2023-01-23T23:52:37.432Z,46.28
2023-01-23T23:55:04.696Z,45.10
2023-01-23T23:57:31.555Z,46.63
2023-01-23T23:59:58.462Z,45.42
